Chiquita Schweiz — C6KD9 — position and weather

sailwx.info

Track history (hours):
 
Tides and Currents Weather Stations Pressure Air Temp Water Temp Dewpoint Dewpoint Depression Visibility Wind Speed Wind Dir Waves Ship Positions

Chiquita Schweiz

Last reported at 2018-Apr-22 05:52 UTC. Time now 2018-Apr-22 06:45 UTC.
Position N 48°49' W 006°39'.

Length 158.9 m; beam 24.4 m; draft 10 m.

Type: Ship. MMSI: 308124000.

Date/timePositionNaut miles runAvg speedWind from/ knotsBaromVisibWave heightAir tempDewpointWater temp
2018-Apr-22 05:52N 48°49' W 006°39'716.8
2018-Apr-22 05:26N 48°53' W 006°30'716.1
2018-Apr-22 05:00N 48°57' W 006°22'916.3
2018-Apr-22 04:28N 49°03' W 006°11'1416.7
2018-Apr-22 03:36N 49°11' W 005°53'1817.3
2018-Apr-22 02:33N 49°18' W 005°27'117.4
2018-Apr-22 02:29N 49°18' W 005°25'817.3
2018-Apr-22 02:00N 49°22' W 005°14'816.7
2018-Apr-22 01:31N 49°26' W 005°03'816.5
2018-Apr-22 01:00N 49°29' W 004°51'816.8
2018-Apr-22 00:31N 49°32' W 004°39'816.6
2018-Apr-22 00:01N 49°35' W 004°27'6325.3
2018-Apr-22 00:00N 49°30' W 004°24'1020.6 010 / 71013.110.8 15.0 9.210.0
2018-Apr-21 23:31N 49°38' W 004°16'915.9
2018-Apr-21 22:58N 49°42' W 004°03'815.5
2018-Apr-21 22:27N 49°44' W 003°51'1015.3
2018-Apr-21 21:47N 49°47' W 003°36'615.2
2018-Apr-21 21:23N 49°50' W 003°28'615.2
2018-Apr-21 21:00N 49°52' W 003°20'1316.1
2018-Apr-21 20:11N 49°56' W 003°00'316.8
2018-Apr-21 20:00N 49°58' W 002°56'917.4
2018-Apr-21 19:30N 50°01' W 002°44'1218.2
2018-Apr-21 18:49N 50°04' W 002°25'619.0
2018-Apr-21 18:30N 50°06' W 002°16'1019.7
2018-Apr-21 18:00N 50°08' W 002°01'918.1
2018-Apr-21 17:31N 50°07' W 001°47'1019.6
2018-Apr-21 17:00N 50°02' W 001°34'1019.6
2018-Apr-21 16:30N 49°57' W 001°21'1019.7
2018-Apr-21 16:00N 49°52' W 001°08'918.8
2018-Apr-21 15:30N 49°47' W 000°55'917.6
2018-Apr-21 15:01N 49°43' W 000°43'816.9
2018-Apr-21 14:31N 49°39' W 000°32'816.6
2018-Apr-21 14:01N 49°35' W 000°21'816.3
2018-Apr-21 13:31N 49°30' W 000°10'714.5
2018-Apr-21 13:00N 49°28' E 000°00'511.1
2018-Apr-21 12:31N 49°26' E 000°08'510.4
2018-Apr-21 12:01N 49°26' E 000°16'5 9.1
2018-Apr-21 11:31N 49°27' E 000°23'4 8.2
2018-Apr-21 11:01N 49°29' E 000°29'0 0.8
2018-Apr-21 10:31N 49°29' E 000°29'0 0.0
2018-Apr-21 10:01N 49°29' E 000°29'0 0.0
2018-Apr-21 09:30N 49°29' E 000°29'0 0.0
2018-Apr-21 09:00N 49°29' E 000°29'0 0.0
2018-Apr-21 08:31N 49°29' E 000°29'0 0.0
2018-Apr-21 08:01N 49°29' E 000°29'0 0.0
2018-Apr-21 07:31N 49°29' E 000°29'0 0.0
2018-Apr-21 07:01N 49°29' E 000°29'0 0.0
2018-Apr-21 06:31N 49°29' E 000°29'0 0.0
2018-Apr-21 06:01N 49°29' E 000°29'0 0.0
2018-Apr-21 05:31N 49°29' E 000°29'0 0.0
2018-Apr-21 05:01N 49°29' E 000°29'0 0.0
2018-Apr-21 04:31N 49°29' E 000°29'0 0.0
2018-Apr-21 04:01N 49°29' E 000°29'0 0.0
2018-Apr-21 03:31N 49°29' E 000°29'0 0.2
2018-Apr-21 03:01N 49°29' E 000°29'5 9.5
2018-Apr-21 02:30N 49°27' E 000°23'613.0
2018-Apr-21 02:01N 49°26' E 000°13'612.0
2018-Apr-21 01:31N 49°26' E 000°04'510.2
2018-Apr-21 01:01N 49°29' W 000°03'2 4.3
2018-Apr-21 00:31N 49°29' W 000°06'4 7.6
2018-Apr-21 00:00N 49°31' W 000°12'510.3
2018-Apr-20 23:31N 49°34' W 000°18'510.1
2018-Apr-20 23:00N 49°39' W 000°20'611.3
2018-Apr-20 22:30N 49°45' W 000°22'815.5
2018-Apr-20 22:00N 49°52' W 000°24'815.7
2018-Apr-20 21:30N 49°60' W 000°27'815.6
2018-Apr-20 21:00N 50°08' W 000°29'815.3
2018-Apr-20 20:31N 50°15' W 000°32'815.1
2018-Apr-20 20:00N 50°22' W 000°31'815.5
2018-Apr-20 19:30N 50°27' W 000°21'816.2
2018-Apr-20 19:00N 50°30' W 000°09'816.5
2018-Apr-20 18:30N 50°32' E 000°03'917.3
2018-Apr-20 18:00N 50°35' E 000°16'918.8
2018-Apr-20 17:30N 50°37' E 000°30'917.8
2018-Apr-20 17:00N 50°42' E 000°43'917.2
2018-Apr-20 16:30N 50°47' E 000°54'816.4
2018-Apr-20 16:00N 50°52' E 001°04'815.6
2018-Apr-20 15:30N 50°57' E 001°13'714.7
2018-Apr-20 15:01N 51°02' E 001°22'714.7
2018-Apr-20 14:30N 51°06' E 001°32'815.2
2018-Apr-20 14:00N 51°11' E 001°41'815.6
2018-Apr-20 13:30N 51°17' E 001°48'917.6
2018-Apr-20 13:00N 51°25' E 001°55'918.6
2018-Apr-20 12:30N 51°32' E 002°04'1019.2
2018-Apr-20 11:59N 51°40' E 002°15'919.2
2018-Apr-20 11:30N 51°47' E 002°25'1519.0
2018-Apr-20 10:44N 51°57' E 002°42'918.4
2018-Apr-20 10:15N 52°03' E 002°52'417.5
2018-Apr-20 10:00N 52°03' E 002°59'917.6
2018-Apr-20 09:30N 52°04' E 003°13'917.5
2018-Apr-20 09:00N 52°04' E 003°27'917.5
2018-Apr-20 08:30N 52°03' E 003°41'815.0
2018-Apr-20 08:00N 52°03' E 003°54'5 9.8
2018-Apr-20 07:30N 52°00' E 004°00'611.8
2018-Apr-20 07:00N 51°58' E 004°09'510.6
2018-Apr-20 06:30N 51°55' E 004°16'4 8.8
2018-Apr-20 06:00N 51°54' E 004°23'2 3.6
2018-Apr-20 05:28N 51°53' E 004°25'0 0.0
2018-Apr-20 04:55N 51°53' E 004°25'0 0.0
2018-Apr-20 04:28N 51°53' E 004°25'0 0.0
2018-Apr-20 03:58N 51°53' E 004°25'0 0.0
2018-Apr-20 03:25N 51°53' E 004°25'0 0.0
2018-Apr-20 03:00N 51°53' E 004°25'0 0.0
2018-Apr-20 02:30N 51°53' E 004°25'0 0.0
2018-Apr-20 02:00N 51°53' E 004°25'0 0.0
2018-Apr-20 01:30N 51°53' E 004°25'0 0.0
2018-Apr-20 01:00N 51°53' E 004°25'0 0.0
2018-Apr-20 00:29N 51°53' E 004°25'0 0.0
2018-Apr-19 23:59N 51°53' E 004°25'0 0.0
2018-Apr-19 23:29N 51°53' E 004°25'0 0.0
2018-Apr-19 22:59N 51°53' E 004°25'0 0.0
2018-Apr-19 22:28N 51°53' E 004°25'0 0.0
2018-Apr-19 21:58N 51°53' E 004°25'0 0.0
2018-Apr-19 21:28N 51°53' E 004°25'0 0.0
2018-Apr-19 20:58N 51°53' E 004°25'0 0.0
2018-Apr-19 20:28N 51°53' E 004°25'0 0.0
2018-Apr-19 20:00N 51°53' E 004°25'0 0.0
2018-Apr-19 19:30N 51°53' E 004°25'0 0.0
2018-Apr-19 19:00N 51°53' E 004°25'0 0.0
2018-Apr-19 18:30N 51°53' E 004°25'0 0.0
2018-Apr-19 18:00N 51°53' E 004°25'0 0.0
2018-Apr-19 17:29N 51°53' E 004°25'0 0.0
2018-Apr-19 16:59N 51°53' E 004°25'0 0.0
2018-Apr-19 16:29N 51°53' E 004°25'0 0.0
2018-Apr-19 15:59N 51°53' E 004°25'0 0.0
2018-Apr-19 15:28N 51°53' E 004°25'0 0.0
2018-Apr-19 14:58N 51°53' E 004°25'0 0.0
2018-Apr-19 14:28N 51°53' E 004°25'0 0.0
2018-Apr-19 13:58N 51°53' E 004°25'0 0.0
2018-Apr-19 13:28N 51°53' E 004°25'0 0.0
2018-Apr-19 13:00N 51°53' E 004°25'0 0.0
2018-Apr-19 12:30N 51°53' E 004°25'0 0.0
2018-Apr-19 12:00N 51°53' E 004°25'0 0.0
2018-Apr-19 11:30N 51°53' E 004°25'0 0.0
2018-Apr-19 11:00N 51°53' E 004°25'2 3.4
2018-Apr-19 10:30N 51°54' E 004°23'2 3.2
2018-Apr-19 09:58N 51°54' E 004°26'0 0.0
2018-Apr-19 09:28N 51°54' E 004°26'0 0.0
2018-Apr-19 08:58N 51°54' E 004°26'0 0.0
2018-Apr-19 08:28N 51°54' E 004°26'0 0.0
2018-Apr-19 08:00N 51°54' E 004°26'0 0.0
2018-Apr-19 07:30N 51°54' E 004°26'0 0.0
2018-Apr-19 07:00N 51°54' E 004°26'0 0.0
2018-Apr-19 06:30N 51°54' E 004°26'0 0.0
2018-Apr-19 05:59N 51°54' E 004°26'0 0.0
2018-Apr-19 05:29N 51°54' E 004°26'0 0.0
2018-Apr-19 04:59N 51°54' E 004°26'0 0.0
2018-Apr-19 04:29N 51°54' E 004°26'0 0.0
2018-Apr-19 03:59N 51°54' E 004°26'0 0.0
2018-Apr-19 03:31N 51°54' E 004°26'0 0.0
2018-Apr-19 03:00N 51°54' E 004°26'2 3.1
2018-Apr-19 02:30N 51°54' E 004°23'4 8.9
2018-Apr-19 02:00N 51°54' E 004°16'510.8
2018-Apr-19 01:31N 51°58' E 004°09'510.4
2018-Apr-19 01:01N 51°60' E 004°02'611.4
2018-Apr-19 00:30N 51°59' E 003°52'4 8.5
2018-Apr-19 00:00N 51°59' E 003°45'5 9.3
2018-Apr-18 23:30N 51°58' E 003°38'613.0
2018-Apr-18 23:00N 51°56' E 003°28'713.7
2018-Apr-18 22:30N 51°54' E 003°18'816.4
2018-Apr-18 22:00N 51°51' E 003°05'1017.2
2018-Apr-18 21:24N 51°49' E 002°49'716.9
2018-Apr-18 21:00N 51°48' E 002°38'816.7
2018-Apr-18 20:30N 51°42' E 002°30'917.3
2018-Apr-18 20:00N 51°35' E 002°20'917.8
2018-Apr-18 19:30N 51°29' E 002°11'918.0
2018-Apr-18 19:00N 51°22' E 002°01'918.1
2018-Apr-18 18:31N 51°15' E 001°52'918.1
2018-Apr-18 18:00N 51°08' E 001°42'918.2
2018-Apr-18 17:30N 51°01' E 001°33'918.2
2018-Apr-18 17:00N 50°54' E 001°25'919.1
2018-Apr-18 16:30N 50°44' E 001°22'1718.1
2018-Apr-18 15:35N 50°33' E 001°03'1218.0
2018-Apr-18 14:55N 50°29' E 000°45'818.0
2018-Apr-18 14:29N 50°27' E 000°33'817.9
2018-Apr-18 14:00N 50°25' E 000°20'918.0
2018-Apr-18 13:30N 50°23' E 000°06'918.4
2018-Apr-18 13:00N 50°20' W 000°08'918.8
2018-Apr-18 12:30N 50°18' W 000°22'1019.5
2018-Apr-18 12:01N 50°15' W 000°36'918.4
2018-Apr-18 11:30N 50°23' W 000°43'918.6
2018-Apr-18 11:00N 50°32' W 000°49'917.8
2018-Apr-18 10:30N 50°40' W 000°55'4 8.9
2018-Apr-18 10:01N 50°43' W 000°60'611.8
2018-Apr-18 09:31N 50°47' W 001°06'2 3.3
2018-Apr-18 09:00N 50°49' W 001°05'0 0.0
2018-Apr-18 08:31N 50°49' W 001°05'0 0.0
2018-Apr-18 08:00N 50°49' W 001°05'0 0.0
2018-Apr-18 07:30N 50°49' W 001°05'0 0.0
2018-Apr-18 07:01N 50°49' W 001°05'0 0.0
2018-Apr-18 06:30N 50°49' W 001°05'0 0.0
2018-Apr-18 06:00N 50°49' W 001°05'0 0.0
2018-Apr-18 05:30N 50°49' W 001°05'0 0.0
2018-Apr-18 05:00N 50°49' W 001°05'0 0.0
2018-Apr-18 04:29N 50°49' W 001°05'0 0.0
2018-Apr-18 03:59N 50°49' W 001°05'0 0.0
2018-Apr-18 03:29N 50°49' W 001°05'0 0.0
2018-Apr-18 02:59N 50°49' W 001°05'0 0.0
2018-Apr-18 02:29N 50°49' W 001°05'0 0.0
2018-Apr-18 01:58N 50°49' W 001°05'0 0.0
2018-Apr-18 01:28N 50°49' W 001°05'0 0.0
2018-Apr-18 00:58N 50°49' W 001°05'0 0.0
2018-Apr-18 00:28N 50°49' W 001°05'0 0.0
2018-Apr-18 00:01N 50°49' W 001°05'0 0.0
2018-Apr-17 23:30N 50°49' W 001°05'0 0.0
2018-Apr-17 23:00N 50°49' W 001°05'0 0.0
2018-Apr-17 22:30N 50°49' W 001°05'0 0.0
2018-Apr-17 22:00N 50°49' W 001°05'0 0.0
2018-Apr-17 21:29N 50°49' W 001°05'0 0.0
2018-Apr-17 20:59N 50°49' W 001°05'0 0.0
2018-Apr-17 20:29N 50°49' W 001°05'0 0.0
2018-Apr-17 19:59N 50°49' W 001°05'0 0.0
2018-Apr-17 19:29N 50°49' W 001°05'0 0.0
2018-Apr-17 18:58N 50°49' W 001°05'0 0.0
2018-Apr-17 18:28N 50°49' W 001°05'0 0.0
2018-Apr-17 17:58N 50°49' W 001°05'0 0.0
2018-Apr-17 17:28N 50°49' W 001°05'0 0.0
2018-Apr-17 17:00N 50°49' W 001°05'0 0.0
2018-Apr-17 16:30N 50°49' W 001°05'0 0.0
2018-Apr-17 16:00N 50°49' W 001°05'0 0.0
2018-Apr-17 15:30N 50°49' W 001°05'0 0.0
2018-Apr-17 15:00N 50°49' W 001°05'0 0.0
2018-Apr-17 14:29N 50°49' W 001°05'0 0.0
2018-Apr-17 13:59N 50°49' W 001°05'0 0.0
2018-Apr-17 13:29N 50°49' W 001°05'0 0.0
2018-Apr-17 12:59N 50°49' W 001°05'0 0.0
2018-Apr-17 12:29N 50°49' W 001°05'0 0.0
2018-Apr-17 11:58N 50°49' W 001°05'0 0.0
2018-Apr-17 11:28N 50°49' W 001°05'0 0.0
2018-Apr-17 10:58N 50°49' W 001°05'0 0.0
2018-Apr-17 10:28N 50°49' W 001°05'0 0.0
2018-Apr-17 10:00N 50°49' W 001°05'0 0.0
2018-Apr-17 09:30N 50°49' W 001°05'0 0.0
2018-Apr-17 09:00N 50°49' W 001°05'0 0.0
2018-Apr-17 08:30N 50°49' W 001°05'0 0.2
2018-Apr-17 08:00N 50°49' W 001°06'2 4.0
2018-Apr-17 07:31N 50°47' W 001°06'5 9.5
2018-Apr-17 07:00N 50°43' W 001°01'4 7.7
2018-Apr-17 06:30N 50°40' W 000°59'2 4.5
2018-Apr-17 06:00N 50°37' W 000°60'713.1
2018-Apr-17 05:30N 50°31' W 001°02'815.8
2018-Apr-17 05:00N 50°24' W 001°07'917.6
2018-Apr-17 04:30N 50°15' W 001°11'815.9
2018-Apr-17 04:01N 50°08' W 001°17'815.5
2018-Apr-17 03:30N 50°06' W 001°28'714.9
2018-Apr-17 03:01N 50°04' W 001°39'714.5
2018-Apr-17 02:30N 50°02' W 001°50'714.4
2018-Apr-17 02:00N 50°00' W 002°01'2015.5
2018-Apr-17 00:42N 49°55' W 002°31'816.8
2018-Apr-17 00:14N 49°53' W 002°43'416.7
2018-Apr-17 00:00N 49°52' W 002°49'816.4
2018-Apr-16 23:31N 49°50' W 003°01'814.9
2018-Apr-16 22:59N 49°51' W 003°13'715.2
2018-Apr-16 22:31N 49°53' W 003°24'815.6
2018-Apr-16 22:01N 49°55' W 003°36'1115.9
2018-Apr-16 21:21N 49°57' W 003°52'1517.6
2018-Apr-16 20:29N 49°59' W 004°15'817.9
2018-Apr-16 20:00N 50°01' W 004°28'917.9
2018-Apr-16 19:30N 50°03' W 004°42'917.8
2018-Apr-16 19:01N 50°04' W 004°55'610.0
2018-Apr-16 18:28N 50°06' W 005°04'0 0.1
2018-Apr-16 17:59N 50°06' W 005°04'0 0.0
2018-Apr-16 17:30N 50°06' W 005°04'0 0.0
2018-Apr-16 17:00N 50°06' W 005°04'0 0.0
2018-Apr-16 16:30N 50°06' W 005°04'0 0.0
2018-Apr-16 16:00N 50°06' W 005°04'0 0.2
2018-Apr-16 15:30N 50°06' W 005°04'2 2.7
2018-Apr-16 14:43N 50°05' W 005°01'0 1.7
2018-Apr-16 14:28N 50°04' W 005°01'3614.5
2018-Apr-16 12:00N 49°30' W 005°18'4916.2 180 / 231013.610.8 13.0 6.810.0
2018-Apr-16 09:00N 48°42' W 005°30'1413.1 220 / 361013.4 5.4 12.5 7.610.0
2018-Apr-16 07:54N 48°30' W 005°43'12816.2
2018-Apr-16 00:00N 46°30' W 006°48'6616.4 250 / 181013.910.8 13.0 6.812.0
2018-Apr-15 20:00N 45°36' W 007°42'33316.7 260 / 331013.610.8 11.8 7.013.0
2018-Apr-15 00:00N 42°12' W 013°48'21918.2 300 / 311014.8 5.4 13.010.713.0
2018-Apr-14 12:00N 40°48' W 018°18'22718.9 300 / 311013.9 5.4 15.312.015.0
2018-Apr-14 00:00N 39°24' W 022°54'20118.7 300 / 281016.3 5.4 16.515.716.0
2018-Apr-13 13:14N 38°13' W 026°56'718.6
2018-Apr-13 12:53N 38°11' W 027°04'718.9
2018-Apr-13 12:30N 38°08' W 027°12'918.8
2018-Apr-13 12:00N 38°05' W 027°23'6442.9
2018-Apr-13 12:00N 38°00' W 027°18'1325.9 290 / 251021.0 5.4 17.916.717.0
2018-Apr-13 11:30N 38°01' W 027°34'918.6
2018-Apr-13 11:00N 37°57' W 027°45'1918.6
2018-Apr-13 10:00N 37°51' W 028°07'918.6
2018-Apr-13 09:30N 37°47' W 028°18'918.6
2018-Apr-13 09:00N 37°43' W 028°28'918.5
2018-Apr-13 08:30N 37°40' W 028°39'17520.5
2018-Apr-13 00:00N 36°30' W 032°00'20316.9 280 / 261023.2 5.4 18.817.817.0
2018-Apr-12 12:00N 35°18' W 035°54'   280 / 231026.7 5.4 20.118.319.0
Track history (hours):
 
Tides and Currents Weather Stations Pressure Air Temp Water Temp Dewpoint Dewpoint Depression Visibility Wind Speed Wind Dir Waves Ship Positions

Chiquita Schweiz

Last reported at 2018-Apr-22 05:52 UTC. Time now 2018-Apr-22 06:45 UTC.
Position N 48°49' W 006°39'.

Length 158.9 m; beam 24.4 m; draft 10 m.

Type: Ship. MMSI: 308124000.

Date/timePositionNaut miles runAvg speedWind from/ knotsBaromVisibWave heightAir tempDewpointWater temp
2018-Apr-22 05:52N 48°49' W 006°39'716.8
2018-Apr-22 05:26N 48°53' W 006°30'716.1
2018-Apr-22 05:00N 48°57' W 006°22'916.3
2018-Apr-22 04:28N 49°03' W 006°11'1416.7
2018-Apr-22 03:36N 49°11' W 005°53'1817.3
2018-Apr-22 02:33N 49°18' W 005°27'117.4
2018-Apr-22 02:29N 49°18' W 005°25'817.3
2018-Apr-22 02:00N 49°22' W 005°14'816.7
2018-Apr-22 01:31N 49°26' W 005°03'816.5
2018-Apr-22 01:00N 49°29' W 004°51'816.8
2018-Apr-22 00:31N 49°32' W 004°39'816.6
2018-Apr-22 00:01N 49°35' W 004°27'6325.3
2018-Apr-22 00:00N 49°30' W 004°24'1020.6 010 / 71013.110.8 15.0 9.210.0
2018-Apr-21 23:31N 49°38' W 004°16'915.9
2018-Apr-21 22:58N 49°42' W 004°03'815.5
2018-Apr-21 22:27N 49°44' W 003°51'1015.3
2018-Apr-21 21:47N 49°47' W 003°36'615.2
2018-Apr-21 21:23N 49°50' W 003°28'615.2
2018-Apr-21 21:00N 49°52' W 003°20'1316.1
2018-Apr-21 20:11N 49°56' W 003°00'316.8
2018-Apr-21 20:00N 49°58' W 002°56'917.4
2018-Apr-21 19:30N 50°01' W 002°44'1218.2
2018-Apr-21 18:49N 50°04' W 002°25'619.0
2018-Apr-21 18:30N 50°06' W 002°16'1019.7
2018-Apr-21 18:00N 50°08' W 002°01'918.1
2018-Apr-21 17:31N 50°07' W 001°47'1019.6
2018-Apr-21 17:00N 50°02' W 001°34'1019.6
2018-Apr-21 16:30N 49°57' W 001°21'1019.7
2018-Apr-21 16:00N 49°52' W 001°08'918.8
2018-Apr-21 15:30N 49°47' W 000°55'917.6
2018-Apr-21 15:01N 49°43' W 000°43'816.9
2018-Apr-21 14:31N 49°39' W 000°32'816.6
2018-Apr-21 14:01N 49°35' W 000°21'816.3
2018-Apr-21 13:31N 49°30' W 000°10'714.5
2018-Apr-21 13:00N 49°28' E 000°00'511.1
2018-Apr-21 12:31N 49°26' E 000°08'510.4
2018-Apr-21 12:01N 49°26' E 000°16'5 9.1
2018-Apr-21 11:31N 49°27' E 000°23'4 8.2
2018-Apr-21 11:01N 49°29' E 000°29'0 0.8
2018-Apr-21 10:31N 49°29' E 000°29'0 0.0
2018-Apr-21 10:01N 49°29' E 000°29'0 0.0
2018-Apr-21 09:30N 49°29' E 000°29'0 0.0
2018-Apr-21 09:00N 49°29' E 000°29'0 0.0
2018-Apr-21 08:31N 49°29' E 000°29'0 0.0
2018-Apr-21 08:01N 49°29' E 000°29'0 0.0
2018-Apr-21 07:31N 49°29' E 000°29'0 0.0
2018-Apr-21 07:01N 49°29' E 000°29'0 0.0
2018-Apr-21 06:31N 49°29' E 000°29'0 0.0
2018-Apr-21 06:01N 49°29' E 000°29'0 0.0
2018-Apr-21 05:31N 49°29' E 000°29'0 0.0
2018-Apr-21 05:01N 49°29' E 000°29'0 0.0
2018-Apr-21 04:31N 49°29' E 000°29'0 0.0
2018-Apr-21 04:01N 49°29' E 000°29'0 0.0
2018-Apr-21 03:31N 49°29' E 000°29'0 0.2
2018-Apr-21 03:01N 49°29' E 000°29'5 9.5
2018-Apr-21 02:30N 49°27' E 000°23'613.0
2018-Apr-21 02:01N 49°26' E 000°13'612.0
2018-Apr-21 01:31N 49°26' E 000°04'510.2
2018-Apr-21 01:01N 49°29' W 000°03'2 4.3
2018-Apr-21 00:31N 49°29' W 000°06'4 7.6
2018-Apr-21 00:00N 49°31' W 000°12'510.3
2018-Apr-20 23:31N 49°34' W 000°18'510.1
2018-Apr-20 23:00N 49°39' W 000°20'611.3
2018-Apr-20 22:30N 49°45' W 000°22'815.5
2018-Apr-20 22:00N 49°52' W 000°24'815.7
2018-Apr-20 21:30N 49°60' W 000°27'815.6
2018-Apr-20 21:00N 50°08' W 000°29'815.3
2018-Apr-20 20:31N 50°15' W 000°32'815.1
2018-Apr-20 20:00N 50°22' W 000°31'815.5
2018-Apr-20 19:30N 50°27' W 000°21'816.2
2018-Apr-20 19:00N 50°30' W 000°09'816.5
2018-Apr-20 18:30N 50°32' E 000°03'917.3
2018-Apr-20 18:00N 50°35' E 000°16'918.8
2018-Apr-20 17:30N 50°37' E 000°30'917.8
2018-Apr-20 17:00N 50°42' E 000°43'917.2
2018-Apr-20 16:30N 50°47' E 000°54'816.4
2018-Apr-20 16:00N 50°52' E 001°04'815.6
2018-Apr-20 15:30N 50°57' E 001°13'714.7
2018-Apr-20 15:01N 51°02' E 001°22'714.7
2018-Apr-20 14:30N 51°06' E 001°32'815.2
2018-Apr-20 14:00N 51°11' E 001°41'815.6
2018-Apr-20 13:30N 51°17' E 001°48'917.6
2018-Apr-20 13:00N 51°25' E 001°55'918.6
2018-Apr-20 12:30N 51°32' E 002°04'1019.2
2018-Apr-20 11:59N 51°40' E 002°15'919.2
2018-Apr-20 11:30N 51°47' E 002°25'1519.0
2018-Apr-20 10:44N 51°57' E 002°42'918.4
2018-Apr-20 10:15N 52°03' E 002°52'417.5
2018-Apr-20 10:00N 52°03' E 002°59'917.6
2018-Apr-20 09:30N 52°04' E 003°13'917.5
2018-Apr-20 09:00N 52°04' E 003°27'917.5
2018-Apr-20 08:30N 52°03' E 003°41'815.0
2018-Apr-20 08:00N 52°03' E 003°54'5 9.8
2018-Apr-20 07:30N 52°00' E 004°00'611.8
2018-Apr-20 07:00N 51°58' E 004°09'510.6
2018-Apr-20 06:30N 51°55' E 004°16'4 8.8
2018-Apr-20 06:00N 51°54' E 004°23'2 3.6
2018-Apr-20 05:28N 51°53' E 004°25'0 0.0
2018-Apr-20 04:55N 51°53' E 004°25'0 0.0
2018-Apr-20 04:28N 51°53' E 004°25'0 0.0
2018-Apr-20 03:58N 51°53' E 004°25'0 0.0
2018-Apr-20 03:25N 51°53' E 004°25'0 0.0
2018-Apr-20 03:00N 51°53' E 004°25'0 0.0
2018-Apr-20 02:30N 51°53' E 004°25'0 0.0
2018-Apr-20 02:00N 51°53' E 004°25'0 0.0
2018-Apr-20 01:30N 51°53' E 004°25'0 0.0
2018-Apr-20 01:00N 51°53' E 004°25'0 0.0
2018-Apr-20 00:29N 51°53' E 004°25'0 0.0
2018-Apr-19 23:59N 51°53' E 004°25'0 0.0
2018-Apr-19 23:29N 51°53' E 004°25'0 0.0
2018-Apr-19 22:59N 51°53' E 004°25'0 0.0
2018-Apr-19 22:28N 51°53' E 004°25'0 0.0
2018-Apr-19 21:58N 51°53' E 004°25'0 0.0
2018-Apr-19 21:28N 51°53' E 004°25'0 0.0
2018-Apr-19 20:58N 51°53' E 004°25'0 0.0
2018-Apr-19 20:28N 51°53' E 004°25'0 0.0
2018-Apr-19 20:00N 51°53' E 004°25'0 0.0
2018-Apr-19 19:30N 51°53' E 004°25'0 0.0
2018-Apr-19 19:00N 51°53' E 004°25'0 0.0
2018-Apr-19 18:30N 51°53' E 004°25'0 0.0
2018-Apr-19 18:00N 51°53' E 004°25'0 0.0
2018-Apr-19 17:29N 51°53' E 004°25'0 0.0
2018-Apr-19 16:59N 51°53' E 004°25'0 0.0
2018-Apr-19 16:29N 51°53' E 004°25'0 0.0
2018-Apr-19 15:59N 51°53' E 004°25'0 0.0
2018-Apr-19 15:28N 51°53' E 004°25'0 0.0
2018-Apr-19 14:58N 51°53' E 004°25'0 0.0
2018-Apr-19 14:28N 51°53' E 004°25'0 0.0
2018-Apr-19 13:58N 51°53' E 004°25'0 0.0
2018-Apr-19 13:28N 51°53' E 004°25'0 0.0
2018-Apr-19 13:00N 51°53' E 004°25'0 0.0
2018-Apr-19 12:30N 51°53' E 004°25'0 0.0
2018-Apr-19 12:00N 51°53' E 004°25'0 0.0
2018-Apr-19 11:30N 51°53' E 004°25'0 0.0
2018-Apr-19 11:00N 51°53' E 004°25'2 3.4
2018-Apr-19 10:30N 51°54' E 004°23'2 3.2
2018-Apr-19 09:58N 51°54' E 004°26'0 0.0
2018-Apr-19 09:28N 51°54' E 004°26'0 0.0
2018-Apr-19 08:58N 51°54' E 004°26'0 0.0
2018-Apr-19 08:28N 51°54' E 004°26'0 0.0
2018-Apr-19 08:00N 51°54' E 004°26'0 0.0
2018-Apr-19 07:30N 51°54' E 004°26'0 0.0
2018-Apr-19 07:00N 51°54' E 004°26'0 0.0
2018-Apr-19 06:30N 51°54' E 004°26'0 0.0
2018-Apr-19 05:59N 51°54' E 004°26'0 0.0
2018-Apr-19 05:29N 51°54' E 004°26'0 0.0
2018-Apr-19 04:59N 51°54' E 004°26'0 0.0
2018-Apr-19 04:29N 51°54' E 004°26'0 0.0
2018-Apr-19 03:59N 51°54' E 004°26'0 0.0
2018-Apr-19 03:31N 51°54' E 004°26'0 0.0
2018-Apr-19 03:00N 51°54' E 004°26'2 3.1
2018-Apr-19 02:30N 51°54' E 004°23'4 8.9
2018-Apr-19 02:00N 51°54' E 004°16'510.8
2018-Apr-19 01:31N 51°58' E 004°09'510.4
2018-Apr-19 01:01N 51°60' E 004°02'611.4
2018-Apr-19 00:30N 51°59' E 003°52'4 8.5
2018-Apr-19 00:00N 51°59' E 003°45'5 9.3
2018-Apr-18 23:30N 51°58' E 003°38'613.0
2018-Apr-18 23:00N 51°56' E 003°28'713.7
2018-Apr-18 22:30N 51°54' E 003°18'816.4
2018-Apr-18 22:00N 51°51' E 003°05'1017.2
2018-Apr-18 21:24N 51°49' E 002°49'716.9
2018-Apr-18 21:00N 51°48' E 002°38'816.7
2018-Apr-18 20:30N 51°42' E 002°30'917.3
2018-Apr-18 20:00N 51°35' E 002°20'917.8
2018-Apr-18 19:30N 51°29' E 002°11'918.0
2018-Apr-18 19:00N 51°22' E 002°01'918.1
2018-Apr-18 18:31N 51°15' E 001°52'918.1
2018-Apr-18 18:00N 51°08' E 001°42'918.2
2018-Apr-18 17:30N 51°01' E 001°33'918.2
2018-Apr-18 17:00N 50°54' E 001°25'919.1
2018-Apr-18 16:30N 50°44' E 001°22'1718.1
2018-Apr-18 15:35N 50°33' E 001°03'1218.0
2018-Apr-18 14:55N 50°29' E 000°45'818.0
2018-Apr-18 14:29N 50°27' E 000°33'817.9
2018-Apr-18 14:00N 50°25' E 000°20'918.0
2018-Apr-18 13:30N 50°23' E 000°06'918.4
2018-Apr-18 13:00N 50°20' W 000°08'918.8
2018-Apr-18 12:30N 50°18' W 000°22'1019.5
2018-Apr-18 12:01N 50°15' W 000°36'918.4
2018-Apr-18 11:30N 50°23' W 000°43'918.6
2018-Apr-18 11:00N 50°32' W 000°49'917.8
2018-Apr-18 10:30N 50°40' W 000°55'4 8.9
2018-Apr-18 10:01N 50°43' W 000°60'611.8
2018-Apr-18 09:31N 50°47' W 001°06'2 3.3
2018-Apr-18 09:00N 50°49' W 001°05'0 0.0
2018-Apr-18 08:31N 50°49' W 001°05'0 0.0
2018-Apr-18 08:00N 50°49' W 001°05'0 0.0
2018-Apr-18 07:30N 50°49' W 001°05'0 0.0
2018-Apr-18 07:01N 50°49' W 001°05'0 0.0
2018-Apr-18 06:30N 50°49' W 001°05'0 0.0
2018-Apr-18 06:00N 50°49' W 001°05'0 0.0
2018-Apr-18 05:30N 50°49' W 001°05'0 0.0
2018-Apr-18 05:00N 50°49' W 001°05'0 0.0
2018-Apr-18 04:29N 50°49' W 001°05'0 0.0
2018-Apr-18 03:59N 50°49' W 001°05'0 0.0
2018-Apr-18 03:29N 50°49' W 001°05'0 0.0
2018-Apr-18 02:59N 50°49' W 001°05'0 0.0
2018-Apr-18 02:29N 50°49' W 001°05'0 0.0
2018-Apr-18 01:58N 50°49' W 001°05'0 0.0
2018-Apr-18 01:28N 50°49' W 001°05'0 0.0
2018-Apr-18 00:58N 50°49' W 001°05'0 0.0
2018-Apr-18 00:28N 50°49' W 001°05'0 0.0
2018-Apr-18 00:01N 50°49' W 001°05'0 0.0
2018-Apr-17 23:30N 50°49' W 001°05'0 0.0
2018-Apr-17 23:00N 50°49' W 001°05'0 0.0
2018-Apr-17 22:30N 50°49' W 001°05'0 0.0
2018-Apr-17 22:00N 50°49' W 001°05'0 0.0
2018-Apr-17 21:29N 50°49' W 001°05'0 0.0
2018-Apr-17 20:59N 50°49' W 001°05'0 0.0
2018-Apr-17 20:29N 50°49' W 001°05'0 0.0
2018-Apr-17 19:59N 50°49' W 001°05'0 0.0
2018-Apr-17 19:29N 50°49' W 001°05'0 0.0
2018-Apr-17 18:58N 50°49' W 001°05'0 0.0
2018-Apr-17 18:28N 50°49' W 001°05'0 0.0
2018-Apr-17 17:58N 50°49' W 001°05'0 0.0
2018-Apr-17 17:28N 50°49' W 001°05'0 0.0
2018-Apr-17 17:00N 50°49' W 001°05'0 0.0
2018-Apr-17 16:30N 50°49' W 001°05'0 0.0
2018-Apr-17 16:00N 50°49' W 001°05'0 0.0
2018-Apr-17 15:30N 50°49' W 001°05'0 0.0
2018-Apr-17 15:00N 50°49' W 001°05'0 0.0
2018-Apr-17 14:29N 50°49' W 001°05'0 0.0
2018-Apr-17 13:59N 50°49' W 001°05'0 0.0
2018-Apr-17 13:29N 50°49' W 001°05'0 0.0
2018-Apr-17 12:59N 50°49' W 001°05'0 0.0
2018-Apr-17 12:29N 50°49' W 001°05'0 0.0
2018-Apr-17 11:58N 50°49' W 001°05'0 0.0
2018-Apr-17 11:28N 50°49' W 001°05'0 0.0
2018-Apr-17 10:58N 50°49' W 001°05'0 0.0
2018-Apr-17 10:28N 50°49' W 001°05'0 0.0
2018-Apr-17 10:00N 50°49' W 001°05'0 0.0
2018-Apr-17 09:30N 50°49' W 001°05'0 0.0
2018-Apr-17 09:00N 50°49' W 001°05'0 0.0
2018-Apr-17 08:30N 50°49' W 001°05'0 0.2
2018-Apr-17 08:00N 50°49' W 001°06'2 4.0
2018-Apr-17 07:31N 50°47' W 001°06'5 9.5
2018-Apr-17 07:00N 50°43' W 001°01'4 7.7
2018-Apr-17 06:30N 50°40' W 000°59'2 4.5
2018-Apr-17 06:00N 50°37' W 000°60'713.1
2018-Apr-17 05:30N 50°31' W 001°02'815.8
2018-Apr-17 05:00N 50°24' W 001°07'917.6
2018-Apr-17 04:30N 50°15' W 001°11'815.9
2018-Apr-17 04:01N 50°08' W 001°17'815.5
2018-Apr-17 03:30N 50°06' W 001°28'714.9
2018-Apr-17 03:01N 50°04' W 001°39'714.5
2018-Apr-17 02:30N 50°02' W 001°50'714.4
2018-Apr-17 02:00N 50°00' W 002°01'2015.5
2018-Apr-17 00:42N 49°55' W 002°31'816.8
2018-Apr-17 00:14N 49°53' W 002°43'416.7
2018-Apr-17 00:00N 49°52' W 002°49'816.4
2018-Apr-16 23:31N 49°50' W 003°01'814.9
2018-Apr-16 22:59N 49°51' W 003°13'715.2
2018-Apr-16 22:31N 49°53' W 003°24'815.6
2018-Apr-16 22:01N 49°55' W 003°36'1115.9
2018-Apr-16 21:21N 49°57' W 003°52'1517.6
2018-Apr-16 20:29N 49°59' W 004°15'817.9
2018-Apr-16 20:00N 50°01' W 004°28'917.9
2018-Apr-16 19:30N 50°03' W 004°42'917.8
2018-Apr-16 19:01N 50°04' W 004°55'610.0
2018-Apr-16 18:28N 50°06' W 005°04'0 0.1
2018-Apr-16 17:59N 50°06' W 005°04'0 0.0
2018-Apr-16 17:30N 50°06' W 005°04'0 0.0
2018-Apr-16 17:00N 50°06' W 005°04'0 0.0
2018-Apr-16 16:30N 50°06' W 005°04'0 0.0
2018-Apr-16 16:00N 50°06' W 005°04'0 0.2
2018-Apr-16 15:30N 50°06' W 005°04'2 2.7
2018-Apr-16 14:43N 50°05' W 005°01'0 1.7
2018-Apr-16 14:28N 50°04' W 005°01'3614.5
2018-Apr-16 12:00N 49°30' W 005°18'4916.2 180 / 231013.610.8 13.0 6.810.0
2018-Apr-16 09:00N 48°42' W 005°30'1413.1 220 / 361013.4 5.4 12.5 7.610.0
2018-Apr-16 07:54N 48°30' W 005°43'12816.2
2018-Apr-16 00:00N 46°30' W 006°48'6616.4 250 / 181013.910.8 13.0 6.812.0
2018-Apr-15 20:00N 45°36' W 007°42'33316.7 260 / 331013.610.8 11.8 7.013.0
2018-Apr-15 00:00N 42°12' W 013°48'21918.2 300 / 311014.8 5.4 13.010.713.0
2018-Apr-14 12:00N 40°48' W 018°18'22718.9 300 / 311013.9 5.4 15.312.015.0
2018-Apr-14 00:00N 39°24' W 022°54'20118.7 300 / 281016.3 5.4 16.515.716.0
2018-Apr-13 13:14N 38°13' W 026°56'718.6
2018-Apr-13 12:53N 38°11' W 027°04'718.9
2018-Apr-13 12:30N 38°08' W 027°12'918.8
2018-Apr-13 12:00N 38°05' W 027°23'6442.9
2018-Apr-13 12:00N 38°00' W 027°18'1325.9 290 / 251021.0 5.4 17.916.717.0
2018-Apr-13 11:30N 38°01' W 027°34'918.6
2018-Apr-13 11:00N 37°57' W 027°45'1918.6
2018-Apr-13 10:00N 37°51' W 028°07'918.6
2018-Apr-13 09:30N 37°47' W 028°18'918.6
2018-Apr-13 09:00N 37°43' W 028°28'918.5
2018-Apr-13 08:30N 37°40' W 028°39'17520.5
2018-Apr-13 00:00N 36°30' W 032°00'20316.9 280 / 261023.2 5.4 18.817.817.0
2018-Apr-12 12:00N 35°18' W 035°54'   280 / 231026.7 5.4 20.118.319.0

Dump ship's entire track history